CED2 weather

CLOSED Chinchaga Airport
Chinchaga, Alberta, Canada

Public forecast

Using degrees Celsius for public forecast. Weather courtesy of forecast.io.

Closest aviation weather report (METAR) to Chinchaga Airport

Closest report is High Level Airport, 89.9 nm (166.5 km) NE. Retrieved 2019/10/22 19:00 UTC (57 minutes ago):

CYOJ 221900Z 08003KT 060V130 12SM FEW006 FEW019 OVC028 03/00 A2980 RMK SC1SC1SC7 SC TR SLP111

Closest aviation forecast (TAF) to Chinchaga Airport

Closest forecast is High Level Airport, 89.9 nm (166.5 km) NE. Retrieved 2019/10/22 19:39 UTC (18 minutes ago):

TAF TAF CYOJ 221838Z 2219/2307 08005KT P6SM FEW006 OVC025 TEMPO 2219/2221 BKN006 OVC025 FM222100 01008KT P6SM SCT008 OVC030 TEMPO 2221/2302 5SM -RASN BKN008 OVC030 FM230200 33008KT P6SM SCT012 OVC030 TEMPO 2302/2307 OVC012 RMK NXT FCST BY 230100Z